Time;durP1;ratioP1;P1;durP2;ratioP2;P2;SDS_P1;SDS_P2;PMS_P1;PMS_P2;Temp;Humidity;BMP_temperature;BMP_pressure;BME280_temperature;BME280_humidity;BME280_pressure;Samples;Min_cycle;Max_cycle;Signal;HPM_P1;HPM_P2
2023/01/16 00:00:55;;;;;;;15.32;7.28;;;;;;;;;;5007904;28;20042;-67
2023/01/16 00:03:21;;;;;;;5.10;4.45;;;;;;;;;;5007456;28;20058;-67
2023/01/16 00:05:47;;;;;;;5.32;3.78;;;;;;;;;;5008964;28;20129;-67
2023/01/16 00:08:13;;;;;;;12.82;6.38;;;;;;;;;;5011026;28;20125;-68
2023/01/16 00:10:38;;;;;;;17.88;8.73;;;;;;;;;;5011725;28;20030;-67
2023/01/16 00:13:04;;;;;;;18.45;8.05;;;;;;;;;;5012377;28;20034;-67
2023/01/16 00:15:30;;;;;;;15.55;6.03;;;;;;;;;;5011690;28;20022;-67
2023/01/16 00:17:56;;;;;;;11.32;4.20;;;;;;;;;;5011073;28;20033;-68
2023/01/16 00:20:22;;;;;;;5.70;3.20;;;;;;;;;;5009611;28;20038;-67
2023/01/16 00:22:47;;;;;;;3.20;2.90;;;;;;;;;;5011516;28;20026;-67
2023/01/16 00:25:13;;;;;;;3.65;3.33;;;;;;;;;;5010918;28;20547;-66
2023/01/16 00:27:39;;;;;;;3.05;2.85;;;;;;;;;;5010105;28;20025;-66
2023/01/16 00:30:06;;;;;;;3.83;2.90;;;;;;;;;;5010695;28;20044;-66
2023/01/16 00:32:31;;;;;;;2.78;2.58;;;;;;;;;;4993464;28;20030;-66
2023/01/16 00:34:57;;;;;;;7.10;3.30;;;;;;;;;;5011047;28;20107;-66
2023/01/16 00:37:23;;;;;;;8.43;3.40;;;;;;;;;;5010004;28;20081;-66
2023/01/16 00:39:48;;;;;;;7.22;4.07;;;;;;;;;;5010893;28;20034;-66
2023/01/16 00:42:33;;;;;;;4.70;3.65;;;;;;;;;;5011084;28;20140;-67
2023/01/16 00:44:58;;;;;;;4.75;3.60;;;;;;;;;;5010615;28;20112;-67
2023/01/16 00:47:24;;;;;;;3.45;3.20;;;;;;;;;;5008970;28;20029;-66
2023/01/16 00:49:49;;;;;;;12.05;4.03;;;;;;;;;;5010117;28;20484;-66
2023/01/16 00:52:16;;;;;;;5.32;3.22;;;;;;;;;;5010284;28;20032;-67
2023/01/16 00:54:41;;;;;;;3.10;2.83;;;;;;;;;;5008927;28;20494;-66
2023/01/16 00:57:07;;;;;;;6.35;2.90;;;;;;;;;;5010202;28;20065;-67
2023/01/16 00:59:32;;;;;;;3.47;3.00;;;;;;;;;;5010552;28;20409;-67
2023/01/16 01:01:58;;;;;;;3.30;3.00;;;;;;;;;;5008887;28;20096;-67
2023/01/16 01:04:24;;;;;;;2.80;2.60;;;;;;;;;;5010298;28;20507;-67
2023/01/16 01:06:50;;;;;;;2.30;2.20;;;;;;;;;;5010064;28;20099;-67
2023/01/16 01:09:16;;;;;;;3.95;2.95;;;;;;;;;;5009703;28;20045;-67
2023/01/16 01:11:41;;;;;;;3.13;2.70;;;;;;;;;;5008163;28;20034;-67
2023/01/16 01:14:07;;;;;;;2.95;2.40;;;;;;;;;;5010272;28;20034;-67
2023/01/16 01:16:32;;;;;;;2.92;2.70;;;;;;;;;;5010172;28;20407;-67
2023/01/16 01:18:58;;;;;;;2.83;2.63;;;;;;;;;;5009099;28;20033;-67
2023/01/16 01:21:24;;;;;;;5.78;2.80;;;;;;;;;;5008261;28;20121;-67
2023/01/16 01:23:49;;;;;;;2.85;2.70;;;;;;;;;;5009434;28;20038;-67
2023/01/16 01:26:16;;;;;;;3.08;2.88;;;;;;;;;;5009638;28;20042;-67
2023/01/16 01:28:42;;;;;;;2.95;2.60;;;;;;;;;;5009326;28;20049;-67
2023/01/16 01:31:10;;;;;;;4.55;2.80;;;;;;;;;;5008058;28;20420;-67
2023/01/16 01:33:36;;;;;;;2.90;2.70;;;;;;;;;;5009155;28;20037;-67
2023/01/16 01:36:03;;;;;;;3.05;2.78;;;;;;;;;;5009433;28;20416;-67
2023/01/16 01:38:29;;;;;;;2.88;2.70;;;;;;;;;;5010762;28;20044;-67
2023/01/16 01:40:54;;;;;;;3.03;2.75;;;;;;;;;;5009781;28;20441;-67
2023/01/16 01:43:20;;;;;;;3.33;2.80;;;;;;;;;;5009361;28;20396;-66
2023/01/16 01:45:53;;;;;;;3.20;2.80;;;;;;;;;;5009076;28;20034;-66
2023/01/16 01:48:26;;;;;;;3.28;2.60;;;;;;;;;;5007429;28;20045;-66
2023/01/16 01:51:04;;;;;;;2.60;2.50;;;;;;;;;;5008071;28;20046;-67
2023/01/16 01:54:00;;;;;;;4.80;2.83;;;;;;;;;;5008573;28;20501;-66
2023/01/16 01:56:41;;;;;;;4.22;2.83;;;;;;;;;;5004404;28;20433;-66
2023/01/16 01:59:14;;;;;;;4.80;3.10;;;;;;;;;;4990977;28;20038;-67
2023/01/16 02:01:39;;;;;;;3.30;3.03;;;;;;;;;;5009159;28;20100;-67
2023/01/16 02:04:12;;;;;;;6.72;3.03;;;;;;;;;;5007685;28;20484;-67
2023/01/16 02:06:46;;;;;;;3.78;2.50;;;;;;;;;;5006160;28;20041;-66
2023/01/16 02:09:13;;;;;;;3.90;3.15;;;;;;;;;;5008672;28;20208;-66
2023/01/16 02:11:47;;;;;;;2.90;2.70;;;;;;;;;;5007331;28;20515;-67
2023/01/16 02:14:15;;;;;;;5.72;3.03;;;;;;;;;;5008419;28;20262;-66
2023/01/16 02:19:31;;;;;;;2.80;2.60;;;;;;;;;;5007639;28;20072;-67
2023/01/16 02:22:14;;;;;;;3.10;2.85;;;;;;;;;;5001504;28;20030;-67
2023/01/16 02:25:04;;;;;;;2.30;2.20;;;;;;;;;;5007053;28;20030;-67
2023/01/16 02:27:51;;;;;;;4.15;2.75;;;;;;;;;;5007097;28;20029;-67
2023/01/16 02:30:43;;;;;;;3.20;2.90;;;;;;;;;;5005432;28;20480;-67
2023/01/16 02:33:59;;;;;;;4.25;2.53;;;;;;;;;;4991219;28;20057;-67
2023/01/16 02:36:36;;;;;;;2.60;2.40;;;;;;;;;;4999273;28;20042;-67
2023/01/16 02:39:14;;;;;;;2.80;2.60;;;;;;;;;;5006064;28;20056;-67
2023/01/16 02:41:51;;;;;;;2.67;2.58;;;;;;;;;;5007915;28;20026;-67
2023/01/16 02:44:51;;;;;;;3.30;2.80;;;;;;;;;;5007765;28;20073;-66
2023/01/16 02:47:23;;;;;;;4.72;2.80;;;;;;;;;;5006326;28;20038;-68
2023/01/16 02:50:01;;;;;;;3.85;2.65;;;;;;;;;;5007371;28;20401;-67
2023/01/16 02:52:52;;;;;;;6.43;2.60;;;;;;;;;;5007679;28;20045;-67
2023/01/16 02:55:33;;;;;;;3.97;2.67;;;;;;;;;;5005151;28;20457;-67
2023/01/16 02:58:05;;;;;;;2.60;2.40;;;;;;;;;;5007627;28;20042;-67
2023/01/16 03:00:31;;;;;;;2.90;2.70;;;;;;;;;;5007741;28;20375;-67
2023/01/16 03:03:53;;;;;;;3.25;2.50;;;;;;;;;;4965711;28;20047;-68
2023/01/16 03:06:19;;;;;;;2.95;2.70;;;;;;;;;;4964714;28;20062;-68
2023/01/16 03:08:52;;;;;;;2.70;2.50;;;;;;;;;;4965957;28;20537;-68
2023/01/16 03:11:24;;;;;;;4.45;2.40;;;;;;;;;;4965625;28;20311;-67
2023/01/16 03:14:01;;;;;;;2.17;2.08;;;;;;;;;;4964845;28;20142;-67
2023/01/16 03:16:47;;;;;;;4.25;2.92;;;;;;;;;;4964387;28;20043;-68
2023/01/16 03:19:26;;;;;;;2.60;2.40;;;;;;;;;;4965965;28;20034;-68
2023/01/16 03:22:04;;;;;;;2.80;2.60;;;;;;;;;;4964755;28;20101;-68
2023/01/16 03:24:42;;;;;;;2.83;2.50;;;;;;;;;;4965587;28;20042;-67
2023/01/16 03:27:24;;;;;;;2.50;2.40;;;;;;;;;;4965992;28;20122;-68
2023/01/16 03:30:08;;;;;;;2.78;2.58;;;;;;;;;;4964854;28;20421;-68
2023/01/16 03:32:45;;;;;;;2.75;2.55;;;;;;;;;;4965743;28;20085;-66
2023/01/16 03:35:23;;;;;;;3.35;2.70;;;;;;;;;;5006753;28;20049;-68
2023/01/16 03:37:57;;;;;;;4.85;2.83;;;;;;;;;;5007421;28;20042;-67
2023/01/16 03:40:27;;;;;;;2.92;2.50;;;;;;;;;;5006010;28;20037;-68
2023/01/16 03:43:00;;;;;;;2.67;2.58;;;;;;;;;;5011267;28;20069;-67
2023/01/16 03:45:35;;;;;;;2.42;2.33;;;;;;;;;;5011771;28;20034;-67
2023/01/16 03:48:07;;;;;;;3.72;2.60;;;;;;;;;;5007243;28;20079;-68
2023/01/16 03:50:34;;;;;;;2.63;2.50;;;;;;;;;;5015887;28;20432;-67
2023/01/16 03:53:05;;;;;;;3.08;2.70;;;;;;;;;;5014154;28;20037;-67
2023/01/16 03:55:54;;;;;;;2.38;2.28;;;;;;;;;;5005528;28;20065;-67
2023/01/16 03:58:27;;;;;;;4.20;3.07;;;;;;;;;;5010120;28;20030;-67
2023/01/16 04:01:06;;;;;;;2.70;2.38;;;;;;;;;;5010278;28;20289;-67
2023/01/16 04:03:40;;;;;;;2.58;2.40;;;;;;;;;;5010231;28;20089;-67
2023/01/16 04:06:13;;;;;;;2.63;2.53;;;;;;;;;;5006552;28;20034;-67
2023/01/16 04:08:41;;;;;;;3.35;2.70;;;;;;;;;;5010972;28;20072;-67
2023/01/16 04:11:08;;;;;;;2.50;2.40;;;;;;;;;;5011329;28;20128;-67
2023/01/16 04:13:37;;;;;;;2.67;2.47;;;;;;;;;;5014900;28;20476;-67
2023/01/16 04:16:10;;;;;;;5.93;2.70;;;;;;;;;;5010588;28;20087;-67
2023/01/16 04:18:36;;;;;;;2.70;2.50;;;;;;;;;;5010267;28;20060;-67
2023/01/16 04:21:06;;;;;;;4.03;3.22;;;;;;;;;;5010786;28;20141;-67
2023/01/16 04:23:32;;;;;;;4.28;2.72;;;;;;;;;;5009893;28;20025;-67
2023/01/16 04:25:58;;;;;;;2.90;2.67;;;;;;;;;;5009520;28;20057;-67
2023/01/16 04:28:24;;;;;;;2.95;2.40;;;;;;;;;;5010076;28;20251;-67
2023/01/16 04:30:49;;;;;;;2.28;2.20;;;;;;;;;;5010608;28;20033;-67
2023/01/16 04:33:15;;;;;;;3.00;2.80;;;;;;;;;;5008595;28;20567;-67
2023/01/16 04:35:40;;;;;;;2.40;2.30;;;;;;;;;;5010681;28;20072;-67
2023/01/16 04:38:06;;;;;;;3.00;2.75;;;;;;;;;;5010285;28;20045;-67
2023/01/16 04:40:31;;;;;;;4.78;2.60;;;;;;;;;;5010337;28;20045;-68
2023/01/16 04:42:57;;;;;;;2.72;2.63;;;;;;;;;;5008984;28;20030;-67
2023/01/16 04:45:23;;;;;;;2.80;2.67;;;;;;;;;;5010393;28;20116;-67
2023/01/16 04:47:49;;;;;;;5.72;3.75;;;;;;;;;;5010267;28;20052;-67
2023/01/16 04:50:16;;;;;;;8.75;4.22;;;;;;;;;;5008356;28;20037;-67
2023/01/16 04:52:41;;;;;;;19.60;8.88;;;;;;;;;;5009726;28;20750;-67
2023/01/16 04:55:08;;;;;;;31.92;12.60;;;;;;;;;;5009733;28;20120;-67
2023/01/16 04:57:33;;;;;;;9.55;6.10;;;;;;;;;;5009403;28;20485;-67
2023/01/16 04:59:59;;;;;;;16.95;8.48;;;;;;;;;;5007423;28;20041;-67
2023/01/16 05:02:24;;;;;;;11.73;5.97;;;;;;;;;;5009877;28;20026;-67
2023/01/16 05:04:50;;;;;;;2.97;2.78;;;;;;;;;;5008346;28;20583;-67
2023/01/16 05:07:16;;;;;;;3.65;2.67;;;;;;;;;;5009527;28;20061;-68
2023/01/16 05:09:41;;;;;;;3.47;3.22;;;;;;;;;;5009348;28;20033;-67
2023/01/16 05:12:07;;;;;;;3.03;2.75;;;;;;;;;;5009306;28;20117;-67
2023/01/16 05:14:32;;;;;;;2.72;2.63;;;;;;;;;;5008588;28;20774;-67
2023/01/16 05:16:58;;;;;;;5.07;3.10;;;;;;;;;;5009698;28;20048;-67
2023/01/16 05:19:23;;;;;;;7.45;3.25;;;;;;;;;;5009666;28;20464;-67
2023/01/16 05:21:49;;;;;;;8.38;3.20;;;;;;;;;;5009325;28;20136;-67
2023/01/16 05:24:14;;;;;;;3.05;2.75;;;;;;;;;;5007592;28;20496;-67
2023/01/16 05:26:40;;;;;;;3.28;2.50;;;;;;;;;;5009104;28;20037;-67
2023/01/16 05:29:05;;;;;;;2.95;2.75;;;;;;;;;;5009412;28;20041;-68
2023/01/16 05:31:31;;;;;;;5.50;2.90;;;;;;;;;;5008036;28;20490;-67
2023/01/16 05:33:57;;;;;;;3.08;2.88;;;;;;;;;;5009252;28;20084;-67
2023/01/16 05:36:22;;;;;;;3.83;3.17;;;;;;;;;;5009445;28;20350;-67
2023/01/16 05:38:50;;;;;;;3.30;3.10;;;;;;;;;;5008726;28;20041;-67
2023/01/16 05:41:16;;;;;;;2.97;2.80;;;;;;;;;;5007456;28;20045;-67
2023/01/16 05:43:42;;;;;;;2.67;2.47;;;;;;;;;;5009339;28;20044;-67
2023/01/16 05:46:08;;;;;;;2.80;2.70;;;;;;;;;;5009249;28;20030;-68
2023/01/16 05:48:35;;;;;;;4.35;3.60;;;;;;;;;;5007528;28;20040;-68
2023/01/16 05:51:02;;;;;;;11.85;7.28;;;;;;;;;;5008964;28;20493;-68
2023/01/16 05:53:30;;;;;;;7.22;4.70;;;;;;;;;;5006811;28;20040;-68
2023/01/16 05:55:56;;;;;;;15.00;9.68;;;;;;;;;;5006516;28;20088;-67
2023/01/16 05:58:22;;;;;;;4.47;4.07;;;;;;;;;;5007858;28;20370;-67
2023/01/16 06:00:48;;;;;;;6.18;3.63;;;;;;;;;;5006504;28;20038;-67
2023/01/16 06:03:15;;;;;;;3.08;2.85;;;;;;;;;;5008978;28;20021;-67
2023/01/16 06:05:41;;;;;;;3.08;2.90;;;;;;;;;;4986963;28;20046;-67
2023/01/16 06:08:07;;;;;;;3.47;3.20;;;;;;;;;;5008223;28;20030;-68
2023/01/16 06:10:32;;;;;;;5.10;3.08;;;;;;;;;;5010059;28;20060;-67
2023/01/16 06:13:00;;;;;;;3.67;3.30;;;;;;;;;;5011307;28;20041;-66
2023/01/16 06:15:25;;;;;;;2.90;2.80;;;;;;;;;;5008807;28;20138;-67
2023/01/16 06:17:53;;;;;;;2.90;2.78;;;;;;;;;;5007358;28;20159;-67
2023/01/16 06:20:19;;;;;;;3.33;3.13;;;;;;;;;;5008264;28;20095;-67
2023/01/16 06:22:45;;;;;;;3.90;3.70;;;;;;;;;;5008684;28;20496;-66
2023/01/16 06:25:10;;;;;;;3.05;2.90;;;;;;;;;;5008660;28;20045;-67
2023/01/16 06:27:36;;;;;;;4.65;3.20;;;;;;;;;;5007003;28;20025;-66
2023/01/16 06:30:03;;;;;;;3.38;3.17;;;;;;;;;;5006478;28;20044;-67
2023/01/16 06:32:28;;;;;;;3.17;2.83;;;;;;;;;;5007343;28;20034;-67
2023/01/16 06:34:54;;;;;;;4.00;3.35;;;;;;;;;;5008654;28;20125;-67
2023/01/16 06:37:19;;;;;;;3.80;3.50;;;;;;;;;;5008098;28;20038;-67
2023/01/16 06:39:45;;;;;;;3.00;2.80;;;;;;;;;;5006774;28;20153;-67
2023/01/16 06:42:10;;;;;;;3.20;2.90;;;;;;;;;;5008585;28;20116;-67
2023/01/16 06:44:36;;;;;;;3.00;2.80;;;;;;;;;;5008603;28;20042;-66
2023/01/16 06:47:02;;;;;;;3.88;3.42;;;;;;;;;;5015472;28;20041;-66
2023/01/16 06:49:27;;;;;;;3.30;3.10;;;;;;;;;;5008235;28;20048;-66
2023/01/16 06:51:53;;;;;;;3.58;3.28;;;;;;;;;;5008156;28;20038;-66
2023/01/16 06:54:19;;;;;;;3.78;3.00;;;;;;;;;;5008386;28;20026;-67
2023/01/16 06:56:44;;;;;;;3.35;3.15;;;;;;;;;;5006616;28;20038;-66
2023/01/16 06:59:10;;;;;;;3.20;3.03;;;;;;;;;;5006361;28;20080;-66
2023/01/16 07:01:35;;;;;;;3.55;3.30;;;;;;;;;;5007943;28;20092;-66
2023/01/16 07:04:01;;;;;;;3.47;3.28;;;;;;;;;;5007958;28;20030;-66
2023/01/16 07:06:27;;;;;;;3.30;3.10;;;;;;;;;;5006669;28;20030;-66
2023/01/16 07:08:52;;;;;;;3.67;3.25;;;;;;;;;;5007547;28;20052;-66
2023/01/16 07:11:19;;;;;;;3.30;3.10;;;;;;;;;;5007723;28;20044;-66
2023/01/16 07:13:44;;;;;;;3.20;3.00;;;;;;;;;;5007474;28;20400;-65
2023/01/16 07:24:31;;;;;;;3.38;3.17;;;;;;;;;;5011950;28;20030;-65
2023/01/16 07:27:00;;;;;;;6.53;4.00;;;;;;;;;;5010293;28;20033;-64
2023/01/16 07:29:28;;;;;;;13.10;3.75;;;;;;;;;;5011762;28;20049;-65
2023/01/16 07:31:54;;;;;;;4.38;3.53;;;;;;;;;;5010669;28;20503;-65
2023/01/16 07:34:20;;;;;;;4.60;4.20;;;;;;;;;;5009928;28;20550;-65
2023/01/16 07:36:46;;;;;;;4.30;3.90;;;;;;;;;;5011131;28;20117;-65
2023/01/16 07:39:11;;;;;;;4.00;3.70;;;;;;;;;;5011281;28;20120;-65
2023/01/16 07:41:37;;;;;;;3.85;3.55;;;;;;;;;;5011764;28;20120;-66
2023/01/16 07:44:06;;;;;;;4.00;3.60;;;;;;;;;;4992448;28;20374;-65
2023/01/16 07:46:32;;;;;;;3.33;3.10;;;;;;;;;;5011650;28;20489;-65
2023/01/16 07:48:58;;;;;;;3.42;3.22;;;;;;;;;;5009926;28;20441;-65
2023/01/16 07:51:24;;;;;;;3.65;3.45;;;;;;;;;;4994171;28;20041;-65
2023/01/16 07:53:50;;;;;;;3.65;3.38;;;;;;;;;;5010295;28;20125;-65
2023/01/16 07:56:15;;;;;;;3.55;3.25;;;;;;;;;;5011482;28;20120;-65
2023/01/16 07:58:42;;;;;;;4.65;4.00;;;;;;;;;;5011552;28;20523;-65
2023/01/16 08:01:09;;;;;;;3.83;3.53;;;;;;;;;;5009631;28;20405;-65
2023/01/16 08:03:36;;;;;;;5.68;4.38;;;;;;;;;;5011524;28;20038;-65
2023/01/16 08:06:02;;;;;;;3.97;3.70;;;;;;;;;;5011869;28;20073;-65
2023/01/16 08:08:28;;;;;;;3.42;3.22;;;;;;;;;;5010551;28;20042;-65
2023/01/16 08:10:56;;;;;;;3.08;2.97;;;;;;;;;;5014395;28;20036;-66
2023/01/16 08:13:22;;;;;;;4.00;3.70;;;;;;;;;;5012784;28;20022;-66
2023/01/16 08:15:50;;;;;;;3.33;3.10;;;;;;;;;;5009890;28;20485;-66
2023/01/16 08:18:17;;;;;;;5.88;3.85;;;;;;;;;;5011293;28;20068;-65
2023/01/16 08:20:44;;;;;;;4.00;3.30;;;;;;;;;;5006619;28;20091;-66
2023/01/16 08:23:10;;;;;;;3.10;2.90;;;;;;;;;;5010199;28;20076;-65
2023/01/16 08:25:36;;;;;;;3.45;3.00;;;;;;;;;;5011489;28;20034;-65
2023/01/16 08:28:01;;;;;;;8.05;5.05;;;;;;;;;;5009851;28;20511;-65
2023/01/16 08:30:27;;;;;;;3.90;3.42;;;;;;;;;;5012094;28;20091;-65
2023/01/16 08:33:01;;;;;;;5.63;4.72;;;;;;;;;;5008852;28;20041;-65
2023/01/16 08:35:27;;;;;;;4.45;3.33;;;;;;;;;;5011548;28;20171;-65
2023/01/16 08:37:52;;;;;;;7.30;5.43;;;;;;;;;;5012939;28;20041;-65
2023/01/16 08:40:18;;;;;;;3.05;2.95;;;;;;;;;;5009695;28;20480;-65
2023/01/16 08:51:22;;;;;;;4.55;3.13;;;;;;;;;;5010679;28;20060;-65
2023/01/16 08:53:51;;;;;;;5.13;4.40;;;;;;;;;;5010777;28;20167;-65
2023/01/16 08:56:16;;;;;;;4.03;3.55;;;;;;;;;;5007972;28;20064;-66
2023/01/16 08:58:42;;;;;;;3.90;3.63;;;;;;;;;;5009525;28;20053;-66
2023/01/16 09:01:08;;;;;;;4.30;4.00;;;;;;;;;;5009490;28;20033;-66
2023/01/16 09:03:34;;;;;;;4.03;3.50;;;;;;;;;;5010298;28;20113;-65
2023/01/16 09:06:00;;;;;;;3.90;3.60;;;;;;;;;;5008126;28;20047;-65
2023/01/16 09:08:25;;;;;;;3.97;3.67;;;;;;;;;;5009132;28;20066;-66
2023/01/16 09:13:50;;;;;;;4.00;3.60;;;;;;;;;;5009212;28;20038;-66
2023/01/16 09:16:21;;;;;;;3.78;3.47;;;;;;;;;;5008035;28;20043;-66
2023/01/16 09:18:47;;;;;;;3.22;3.03;;;;;;;;;;5008879;28;20046;-66
2023/01/16 09:21:13;;;;;;;3.60;3.33;;;;;;;;;;5009409;28;20034;-65
2023/01/16 09:23:39;;;;;;;3.47;3.17;;;;;;;;;;5008186;28;20037;-65
2023/01/16 09:26:05;;;;;;;3.28;3.08;;;;;;;;;;5009515;28;20041;-64
2023/01/16 09:28:30;;;;;;;3.20;3.00;;;;;;;;;;5008886;28;20034;-64
2023/01/16 09:30:56;;;;;;;3.83;3.35;;;;;;;;;;4990629;28;20497;-64
2023/01/16 09:33:21;;;;;;;3.20;3.00;;;;;;;;;;5002611;28;20033;-66
2023/01/16 09:35:47;;;;;;;3.30;3.10;;;;;;;;;;5009517;28;20033;-66
2023/01/16 09:38:12;;;;;;;3.00;2.80;;;;;;;;;;5009114;28;20029;-65
2023/01/16 09:40:38;;;;;;;3.35;3.17;;;;;;;;;;5008228;28;20084;-66
2023/01/16 09:43:35;;;;;;;2.92;2.83;;;;;;;;;;5009712;28;20092;-65
2023/01/16 09:46:16;;;;;;;3.00;2.80;;;;;;;;;;5007540;28;20048;-66
2023/01/16 09:48:59;;;;;;;3.78;3.10;;;;;;;;;;5007609;28;20610;-66
2023/01/16 09:51:30;;;;;;;3.15;3.05;;;;;;;;;;5009507;28;20030;-64
2023/01/16 09:59:41;;;;;;;3.50;3.20;;;;;;;;;;5008550;28;20033;-65
2023/01/16 10:02:25;;;;;;;2.72;2.63;;;;;;;;;;5009036;28;20041;-65
2023/01/16 10:04:53;;;;;;;2.85;2.65;;;;;;;;;;5008402;28;20029;-66
2023/01/16 10:07:41;;;;;;;3.17;2.97;;;;;;;;;;5009367;28;20037;-67
2023/01/16 10:10:18;;;;;;;2.78;2.67;;;;;;;;;;5008184;28;20032;-66
2023/01/16 10:13:08;;;;;;;3.45;3.15;;;;;;;;;;5006431;28;20116;-66
2023/01/16 10:16:12;;;;;;;5.20;3.00;;;;;;;;;;4999562;28;20038;-66
2023/01/16 10:19:08;;;;;;;3.72;3.42;;;;;;;;;;5008484;28;20040;-66
2023/01/16 10:21:55;;;;;;;3.30;3.10;;;;;;;;;;5006534;28;20214;-66
2023/01/16 10:24:49;;;;;;;3.50;3.17;;;;;;;;;;4999839;28;20080;-66
2023/01/16 10:27:41;;;;;;;4.30;3.50;;;;;;;;;;5006536;28;20594;-66
2023/01/16 10:30:18;;;;;;;3.28;3.08;;;;;;;;;;5007116;28;20509;-66
2023/01/16 10:33:12;;;;;;;3.72;3.42;;;;;;;;;;5005241;28;20116;-65
2023/01/16 10:35:43;;;;;;;3.10;2.90;;;;;;;;;;5008343;28;20042;-66
2023/01/16 10:39:03;;;;;;;4.25;3.22;;;;;;;;;;5011631;28;20504;-65
2023/01/16 10:50:07;;;;;;;8.48;4.72;;;;;;;;;;5006251;28;20040;-66
2023/01/16 10:52:33;;;;;;;2.80;2.70;;;;;;;;;;5007723;28;20048;-66
2023/01/16 10:55:00;;;;;;;3.03;2.65;;;;;;;;;;5008210;28;20045;-65
2023/01/16 10:57:27;;;;;;;3.05;2.85;;;;;;;;;;5007026;28;20069;-66
2023/01/16 10:59:59;;;;;;;2.78;2.60;;;;;;;;;;5007402;28;20552;-66
2023/01/16 11:02:30;;;;;;;4.70;4.28;;;;;;;;;;5008585;28;20473;-67
2023/01/16 11:04:56;;;;;;;3.20;3.00;;;;;;;;;;5006859;28;20428;-65
2023/01/16 11:07:26;;;;;;;2.97;2.88;;;;;;;;;;5008466;28;20034;-65
2023/01/16 11:09:51;;;;;;;5.72;4.65;;;;;;;;;;5008224;28;20046;-65
2023/01/16 11:20:45;;;;;;;2.80;2.60;;;;;;;;;;5008113;28;20543;-66
2023/01/16 11:23:11;;;;;;;3.17;3.03;;;;;;;;;;5006729;28;20128;-66
2023/01/16 11:25:37;;;;;;;2.70;2.60;;;;;;;;;;5007983;28;20041;-66
2023/01/16 11:28:06;;;;;;;2.60;2.50;;;;;;;;;;5008090;28;20308;-65
2023/01/16 11:30:36;;;;;;;2.90;2.70;;;;;;;;;;5005674;28;20060;-65
2023/01/16 11:33:07;;;;;;;2.65;2.55;;;;;;;;;;5007542;28;20112;-65
2023/01/16 11:35:35;;;;;;;5.93;4.47;;;;;;;;;;5007673;28;20069;-65
2023/01/16 11:38:05;;;;;;;4.97;4.40;;;;;;;;;;5008948;28;20093;-66
2023/01/16 11:40:43;;;;;;;3.58;3.28;;;;;;;;;;4989672;28;20042;-66
2023/01/16 11:46:27;;;;;;;3.03;2.83;;;;;;;;;;5008296;28;20034;-66
2023/01/16 11:48:54;;;;;;;3.17;2.70;;;;;;;;;;5002559;28;20497;-66
2023/01/16 11:51:24;;;;;;;3.50;3.22;;;;;;;;;;5008938;28;20053;-66
2023/01/16 11:53:52;;;;;;;3.38;3.08;;;;;;;;;;5007660;28;20054;-65
2023/01/16 11:56:32;;;;;;;3.97;3.67;;;;;;;;;;5006030;28;20405;-67
2023/01/16 11:59:29;;;;;;;3.80;2.90;;;;;;;;;;5005758;28;20049;-66
2023/01/16 12:02:24;;;;;;;2.83;2.72;;;;;;;;;;5006278;28;20126;-66
2023/01/16 12:07:55;;;;;;;3.63;3.33;;;;;;;;;;5008978;28;20057;-66
2023/01/16 12:10:41;;;;;;;6.55;3.10;;;;;;;;;;5009705;28;20045;-66
2023/01/16 12:16:01;;;;;;;2.90;2.80;;;;;;;;;;5009058;28;20041;-65
2023/01/16 12:19:06;;;;;;;3.22;3.00;;;;;;;;;;5008306;28;20041;-64
2023/01/16 12:21:39;;;;;;;2.80;2.70;;;;;;;;;;5007799;28;20072;-64
2023/01/16 12:24:34;;;;;;;3.03;2.88;;;;;;;;;;5009074;28;20048;-64
2023/01/16 12:27:18;;;;;;;2.80;2.70;;;;;;;;;;5008127;28;20120;-65
2023/01/16 12:30:13;;;;;;;3.38;3.17;;;;;;;;;;5008715;28;20049;-66
2023/01/16 12:33:11;;;;;;;5.95;3.83;;;;;;;;;;4986468;28;20053;-66
2023/01/16 12:36:12;;;;;;;2.95;2.85;;;;;;;;;;5008872;28;20037;-66
2023/01/16 12:38:47;;;;;;;3.30;3.08;;;;;;;;;;4973986;28;20116;-66
2023/01/16 12:44:44;;;;;;;4.70;3.97;;;;;;;;;;5008710;28;20761;-65
2023/01/16 12:47:43;;;;;;;3.03;2.92;;;;;;;;;;5007545;28;20081;-66
2023/01/16 12:50:32;;;;;;;3.13;2.92;;;;;;;;;;5008740;28;20094;-65
2023/01/16 12:53:20;;;;;;;3.28;2.97;;;;;;;;;;5002854;28;20097;-66
2023/01/16 12:56:18;;;;;;;3.88;3.40;;;;;;;;;;5008647;28;20046;-65
2023/01/16 12:58:49;;;;;;;3.00;2.80;;;;;;;;;;5008244;28;20042;-66
2023/01/16 13:01:37;;;;;;;3.05;2.95;;;;;;;;;;5008336;28;20034;-67
2023/01/16 13:04:17;;;;;;;3.05;2.85;;;;;;;;;;5008637;28;20034;-65
2023/01/16 13:06:55;;;;;;;2.70;2.60;;;;;;;;;;5005974;28;20100;-65
2023/01/16 13:09:37;;;;;;;3.15;2.95;;;;;;;;;;5007832;28;20041;-65
2023/01/16 13:15:09;;;;;;;3.00;2.80;;;;;;;;;;5008208;28;20120;-65
2023/01/16 13:17:47;;;;;;;2.97;2.88;;;;;;;;;;4989148;28;20041;-65
2023/01/16 13:20:15;;;;;;;3.17;3.03;;;;;;;;;;5008891;28;20056;-65
2023/01/16 13:22:52;;;;;;;3.75;3.45;;;;;;;;;;5008082;28;20131;-65
2023/01/16 13:25:26;;;;;;;3.83;3.53;;;;;;;;;;5007870;28;20472;-65
2023/01/16 13:28:12;;;;;;;3.63;3.33;;;;;;;;;;5007669;28;20041;-66
2023/01/16 13:30:38;;;;;;;5.15;4.45;;;;;;;;;;5005742;28;20034;-65
2023/01/16 13:33:09;;;;;;;3.80;3.50;;;;;;;;;;5008485;28;20525;-65
2023/01/16 13:35:49;;;;;;;3.80;3.50;;;;;;;;;;5009819;28;20417;-67
2023/01/16 13:38:35;;;;;;;;;;;;;;;;;;5008572;28;20037;-65
2023/01/16 13:41:28;;;;;;;3.08;2.90;;;;;;;;;;5006591;28;20384;-65
2023/01/16 13:46:42;;;;;;;3.53;3.33;;;;;;;;;;5005438;28;20030;-65
2023/01/16 13:49:17;;;;;;;4.00;3.75;;;;;;;;;;5005634;28;20083;-65
2023/01/16 13:51:44;;;;;;;4.00;3.70;;;;;;;;;;5007823;28;20124;-65
2023/01/16 13:54:24;;;;;;;4.00;3.70;;;;;;;;;;5004204;28;20034;-65
2023/01/16 13:57:03;;;;;;;3.70;3.40;;;;;;;;;;5006456;28;20112;-65
2023/01/16 13:59:42;;;;;;;3.10;2.90;;;;;;;;;;5007030;28;20037;-67
2023/01/16 14:02:36;;;;;;;4.60;4.03;;;;;;;;;;5007015;28;20508;-65
2023/01/16 14:05:05;;;;;;;3.70;3.45;;;;;;;;;;5000689;28;20077;-65
2023/01/16 14:10:43;;;;;;;;;;;;;;;;;;5004742;28;20029;-65
2023/01/16 14:13:14;;;;;;;3.08;2.95;;;;;;;;;;5004547;28;20020;-66
2023/01/16 14:16:30;;;;;;;2.80;2.70;;;;;;;;;;5006823;28;20073;-65
2023/01/16 14:18:56;;;;;;;2.88;2.78;;;;;;;;;;5006256;28;20406;-64
2023/01/16 14:21:36;;;;;;;2.80;2.70;;;;;;;;;;5002776;28;20056;-66
2023/01/16 14:24:05;;;;;;;2.70;2.60;;;;;;;;;;5004132;28;20819;-66
2023/01/16 14:26:37;;;;;;;2.70;2.60;;;;;;;;;;5005374;28;20041;-66
2023/01/16 14:29:24;;;;;;;3.10;2.90;;;;;;;;;;5006062;28;20064;-64
2023/01/16 14:32:05;;;;;;;2.80;2.70;;;;;;;;;;5006208;28;20038;-66
2023/01/16 14:34:53;;;;;;;3.22;3.03;;;;;;;;;;4988795;28;20115;-64
2023/01/16 14:37:38;;;;;;;3.47;3.17;;;;;;;;;;5006034;28;20161;-63
2023/01/16 14:40:10;;;;;;;3.10;2.85;;;;;;;;;;5004923;28;20041;-66
2023/01/16 14:57:23;;;;;;;5.50;3.08;;;;;;;;;;5004431;28;20049;-66
2023/01/16 15:00:11;;;;;;;3.20;3.00;;;;;;;;;;5004629;28;20073;-66
2023/01/16 15:02:55;;;;;;;3.25;3.03;;;;;;;;;;5002812;28;20196;-66
2023/01/16 15:05:49;;;;;;;3.53;3.30;;;;;;;;;;4998955;28;20116;-66
2023/01/16 15:08:19;;;;;;;3.10;3.00;;;;;;;;;;5004629;28;20030;-65
2023/01/16 15:10:45;;;;;;;3.35;3.15;;;;;;;;;;5007547;28;20033;-66
2023/01/16 15:13:25;;;;;;;3.50;3.30;;;;;;;;;;5007197;28;20637;-66
2023/01/16 15:16:04;;;;;;;3.42;3.22;;;;;;;;;;5005792;28;20029;-65
2023/01/16 15:24:06;;;;;;;7.57;3.30;;;;;;;;;;5007562;28;20581;-65
2023/01/16 15:26:47;;;;;;;3.80;3.58;;;;;;;;;;5007071;28;20026;-65
2023/01/16 15:29:31;;;;;;;3.50;3.30;;;;;;;;;;5005767;28;20038;-65
2023/01/16 15:32:01;;;;;;;3.38;3.20;;;;;;;;;;5007327;28;20136;-66
2023/01/16 15:34:29;;;;;;;4.05;3.72;;;;;;;;;;5006742;28;20030;-65
2023/01/16 15:36:56;;;;;;;3.70;3.35;;;;;;;;;;5006456;28;20034;-63
2023/01/16 15:39:38;;;;;;;3.75;3.45;;;;;;;;;;5010273;28;20048;-65
2023/01/16 15:48:13;;;;;;;3.17;3.00;;;;;;;;;;5010788;28;20065;-66
2023/01/16 15:51:00;;;;;;;3.40;3.10;;;;;;;;;;5010150;28;20493;-65
2023/01/16 15:53:40;;;;;;;3.10;3.00;;;;;;;;;;5010383;28;20045;-65
2023/01/16 15:56:09;;;;;;;3.38;3.17;;;;;;;;;;5009780;28;20044;-65
2023/01/16 15:58:35;;;;;;;3.45;3.25;;;;;;;;;;5008402;28;20119;-65
2023/01/16 16:01:03;;;;;;;3.50;3.30;;;;;;;;;;5009741;28;20069;-65
2023/01/16 16:03:39;;;;;;;3.95;3.65;;;;;;;;;;5011391;28;20026;-65
2023/01/16 16:06:07;;;;;;;3.50;3.30;;;;;;;;;;5010843;28;20026;-65
2023/01/16 16:08:39;;;;;;;3.63;3.35;;;;;;;;;;5009389;28;20547;-65
2023/01/16 16:13:52;;;;;;;3.33;3.00;;;;;;;;;;5010108;28;20038;-66
2023/01/16 16:19:07;;;;;;;3.25;2.90;;;;;;;;;;5010706;28;20029;-66
2023/01/16 16:22:47;;;;;;;3.25;3.08;;;;;;;;;;5010299;28;20048;-66
2023/01/16 16:24:33;;;;;;;3.85;3.55;;;;;;;;;;5009091;28;20034;-66
2023/01/16 16:27:07;;;;;;;4.22;3.20;;;;;;;;;;5010848;28;20033;-66
2023/01/16 16:29:34;;;;;;;7.00;5.00;;;;;;;;;;5010440;28;20037;-66
2023/01/16 16:32:05;;;;;;;5.45;4.32;;;;;;;;;;5010568;28;20034;-66
2023/01/16 16:34:32;;;;;;;3.10;2.90;;;;;;;;;;5009465;28;20274;-66
2023/01/16 16:37:00;;;;;;;3.85;3.53;;;;;;;;;;5010181;28;20030;-67
2023/01/16 16:39:41;;;;;;;3.33;3.13;;;;;;;;;;5010477;28;20033;-67
2023/01/16 16:42:25;;;;;;;3.70;3.40;;;;;;;;;;5007982;28;20026;-67
2023/01/16 16:45:06;;;;;;;8.57;5.88;;;;;;;;;;5009875;28;20111;-67
2023/01/16 16:47:41;;;;;;;3.97;3.67;;;;;;;;;;5010148;28;20073;-67
2023/01/16 16:50:31;;;;;;;5.07;4.50;;;;;;;;;;5007356;28;20032;-67
2023/01/16 16:53:15;;;;;;;4.10;3.80;;;;;;;;;;5004667;28;20073;-67